sensor_id;sensor_type;location;lat;lon;timestamp;pressure;altitude;pressure_sealevel;temperature;humidity
53522;BME280;39398;48.382;9.802;2023-03-20T00:03:57;93983.13;;;7.97;100.00
53522;BME280;39398;48.382;9.802;2023-03-20T00:08:59;93983.97;;;7.98;100.00
53522;BME280;39398;48.382;9.802;2023-03-20T00:14:09;93978.34;;;8.01;100.00
53522;BME280;39398;48.382;9.802;2023-03-20T00:19:14;93984.78;;;8.21;100.00
53522;BME280;39398;48.382;9.802;2023-03-20T00:24:16;93980.81;;;8.02;100.00
53522;BME280;39398;48.382;9.802;2023-03-20T00:29:20;93976.91;;;7.98;100.00
53522;BME280;39398;48.382;9.802;2023-03-20T00:34:26;93984.03;;;8.12;100.00
53522;BME280;39398;48.382;9.802;2023-03-20T00:39:28;93977.75;;;8.13;100.00
53522;BME280;39398;48.382;9.802;2023-03-20T00:44:32;93977.66;;;8.07;100.00
53522;BME280;39398;48.382;9.802;2023-03-20T00:49:36;93973.34;;;8.14;100.00
53522;BME280;39398;48.382;9.802;2023-03-20T00:54:37;93970.72;;;8.14;100.00
53522;BME280;39398;48.382;9.802;2023-03-20T00:59:40;93976.91;;;8.21;100.00
53522;BME280;39398;48.382;9.802;2023-03-20T01:04:49;93972.22;;;8.08;100.00
53522;BME280;39398;48.382;9.802;2023-03-20T01:09:50;93971.41;;;7.85;100.00
53522;BME280;39398;48.382;9.802;2023-03-20T01:14:54;93976.13;;;7.89;100.00
53522;BME280;39398;48.382;9.802;2023-03-20T01:19:57;93982.03;;;7.91;100.00
53522;BME280;39398;48.382;9.802;2023-03-20T01:24:59;93984.47;;;7.93;100.00
53522;BME280;39398;48.382;9.802;2023-03-20T01:30:00;93979.34;;;8.00;100.00
53522;BME280;39398;48.382;9.802;2023-03-20T01:35:04;93980.22;;;7.92;100.00
53522;BME280;39398;48.382;9.802;2023-03-20T01:40:12;93987.38;;;7.75;100.00
53522;BME280;39398;48.382;9.802;2023-03-20T01:45:20;93972.72;;;7.81;100.00
53522;BME280;39398;48.382;9.802;2023-03-20T01:50:26;93980.78;;;7.79;100.00
53522;BME280;39398;48.382;9.802;2023-03-20T01:55:28;93974.19;;;7.83;100.00
53522;BME280;39398;48.382;9.802;2023-03-20T02:00:30;93976.47;;;7.86;100.00
53522;BME280;39398;48.382;9.802;2023-03-20T02:05:34;93972.47;;;7.99;100.00
53522;BME280;39398;48.382;9.802;2023-03-20T02:10:37;93976.69;;;8.08;100.00
53522;BME280;39398;48.382;9.802;2023-03-20T02:15:53;93980.38;;;7.90;100.00
53522;BME280;39398;48.382;9.802;2023-03-20T02:21:18;93981.13;;;8.07;100.00
53522;BME280;39398;48.382;9.802;2023-03-20T02:26:33;93980.00;;;8.02;100.00
53522;BME280;39398;48.382;9.802;2023-03-20T02:31:58;93979.63;;;7.51;100.00
53522;BME280;39398;48.382;9.802;2023-03-20T02:37:46;93975.13;;;7.20;100.00
53522;BME280;39398;48.382;9.802;2023-03-20T02:42:54;93993.97;;;6.43;100.00
53522;BME280;39398;48.382;9.802;2023-03-20T02:48:06;93993.44;;;6.97;100.00
53522;BME280;39398;48.382;9.802;2023-03-20T02:53:18;93993.16;;;7.31;100.00
53522;BME280;39398;48.382;9.802;2023-03-20T02:58:27;94000.66;;;7.42;100.00
53522;BME280;39398;48.382;9.802;2023-03-20T03:03:34;94002.44;;;7.03;100.00
53522;BME280;39398;48.382;9.802;2023-03-20T03:08:43;94011.66;;;6.90;100.00
53522;BME280;39398;48.382;9.802;2023-03-20T03:13:48;94009.16;;;7.05;100.00
53522;BME280;39398;48.382;9.802;2023-03-20T03:18:59;94010.09;;;7.20;100.00
53522;BME280;39398;48.382;9.802;2023-03-20T03:24:04;94019.34;;;7.00;100.00
53522;BME280;39398;48.382;9.802;2023-03-20T03:29:11;94016.69;;;7.08;100.00
53522;BME280;39398;48.382;9.802;2023-03-20T03:34:16;94019.66;;;6.97;100.00
53522;BME280;39398;48.382;9.802;2023-03-20T03:39:25;94022.09;;;7.15;100.00
53522;BME280;39398;48.382;9.802;2023-03-20T03:44:34;94025.97;;;7.27;100.00
53522;BME280;39398;48.382;9.802;2023-03-20T03:49:41;94027.31;;;7.23;100.00
53522;BME280;39398;48.382;9.802;2023-03-20T03:54:46;94031.44;;;7.17;100.00
53522;BME280;39398;48.382;9.802;2023-03-20T03:59:50;94033.66;;;7.45;100.00
53522;BME280;39398;48.382;9.802;2023-03-20T04:04:53;94043.53;;;7.35;100.00
53522;BME280;39398;48.382;9.802;2023-03-20T04:09:56;94035.53;;;7.20;100.00
53522;BME280;39398;48.382;9.802;2023-03-20T04:14:58;94041.81;;;7.03;100.00
53522;BME280;39398;48.382;9.802;2023-03-20T04:20:04;94043.00;;;6.84;100.00
53522;BME280;39398;48.382;9.802;2023-03-20T04:25:09;94047.91;;;6.46;100.00
53522;BME280;39398;48.382;9.802;2023-03-20T04:30:11;94047.25;;;6.19;100.00
53522;BME280;39398;48.382;9.802;2023-03-20T04:35:13;94057.56;;;6.29;100.00
53522;BME280;39398;48.382;9.802;2023-03-20T04:40:16;94063.13;;;6.26;100.00
53522;BME280;39398;48.382;9.802;2023-03-20T04:45:18;94057.06;;;6.34;100.00
53522;BME280;39398;48.382;9.802;2023-03-20T04:50:19;94051.16;;;6.32;100.00
53522;BME280;39398;48.382;9.802;2023-03-20T04:55:22;94049.16;;;6.09;100.00
53522;BME280;39398;48.382;9.802;2023-03-20T05:00:24;94067.38;;;6.11;100.00
53522;BME280;39398;48.382;9.802;2023-03-20T05:05:25;94059.34;;;6.28;100.00
53522;BME280;39398;48.382;9.802;2023-03-20T05:10:28;94066.41;;;6.44;100.00
53522;BME280;39398;48.382;9.802;2023-03-20T05:15:30;94061.66;;;7.05;100.00
53522;BME280;39398;48.382;9.802;2023-03-20T05:20:31;94054.28;;;6.84;100.00
53522;BME280;39398;48.382;9.802;2023-03-20T05:25:34;94051.13;;;7.13;100.00
53522;BME280;39398;48.382;9.802;2023-03-20T05:30:36;94046.38;;;7.17;100.00
53522;BME280;39398;48.382;9.802;2023-03-20T05:35:38;94057.81;;;7.32;100.00
53522;BME280;39398;48.382;9.802;2023-03-20T05:40:41;94068.50;;;7.22;100.00
53522;BME280;39398;48.382;9.802;2023-03-20T05:45:42;94076.34;;;7.39;100.00
53522;BME280;39398;48.382;9.802;2023-03-20T05:50:44;94079.69;;;7.16;100.00
53522;BME280;39398;48.382;9.802;2023-03-20T05:55:47;94088.34;;;7.33;100.00
53522;BME280;39398;48.382;9.802;2023-03-20T06:00:48;94089.84;;;7.28;100.00
53522;BME280;39398;48.382;9.802;2023-03-20T06:05:50;94088.34;;;7.33;100.00
53522;BME280;39398;48.382;9.802;2023-03-20T06:10:52;94106.69;;;7.58;100.00
53522;BME280;39398;48.382;9.802;2023-03-20T06:15:54;94103.97;;;7.10;100.00
53522;BME280;39398;48.382;9.802;2023-03-20T06:20:56;94108.38;;;7.34;100.00
53522;BME280;39398;48.382;9.802;2023-03-20T06:25:59;94107.09;;;7.78;100.00
53522;BME280;39398;48.382;9.802;2023-03-20T06:31:01;94098.78;;;7.66;100.00
53522;BME280;39398;48.382;9.802;2023-03-20T06:36:03;94110.44;;;7.55;100.00
53522;BME280;39398;48.382;9.802;2023-03-20T06:41:06;94117.47;;;7.79;100.00
53522;BME280;39398;48.382;9.802;2023-03-20T06:46:08;94114.56;;;7.97;100.00
53522;BME280;39398;48.382;9.802;2023-03-20T06:51:10;94119.47;;;8.08;100.00
53522;BME280;39398;48.382;9.802;2023-03-20T06:56:12;94137.00;;;7.85;100.00
53522;BME280;39398;48.382;9.802;2023-03-20T07:01:15;94135.13;;;7.93;100.00
53522;BME280;39398;48.382;9.802;2023-03-20T07:06:17;94135.34;;;8.23;100.00
53522;BME280;39398;48.382;9.802;2023-03-20T07:11:20;94136.88;;;8.09;100.00
53522;BME280;39398;48.382;9.802;2023-03-20T07:16:21;94131.72;;;8.24;100.00
53522;BME280;39398;48.382;9.802;2023-03-20T07:21:23;94125.66;;;8.24;100.00
53522;BME280;39398;48.382;9.802;2023-03-20T07:26:26;94116.66;;;8.49;100.00
53522;BME280;39398;48.382;9.802;2023-03-20T07:31:28;94114.78;;;8.58;100.00
53522;BME280;39398;48.382;9.802;2023-03-20T07:36:30;94114.63;;;8.82;100.00
53522;BME280;39398;48.382;9.802;2023-03-20T07:41:32;94117.72;;;8.86;100.00
53522;BME280;39398;48.382;9.802;2023-03-20T07:46:34;94127.63;;;8.84;100.00
53522;BME280;39398;48.382;9.802;2023-03-20T07:51:35;94124.06;;;9.00;100.00
53522;BME280;39398;48.382;9.802;2023-03-20T07:56:38;94119.41;;;9.02;100.00
53522;BME280;39398;48.382;9.802;2023-03-20T08:01:40;94117.63;;;9.17;100.00
53522;BME280;39398;48.382;9.802;2023-03-20T08:06:41;94125.72;;;9.83;100.00
53522;BME280;39398;48.382;9.802;2023-03-20T08:11:44;94139.22;;;10.54;100.00
53522;BME280;39398;48.382;9.802;2023-03-20T08:16:46;94142.31;;;10.58;100.00
53522;BME280;39398;48.382;9.802;2023-03-20T08:21:47;94137.75;;;10.66;100.00
53522;BME280;39398;48.382;9.802;2023-03-20T08:26:50;94140.81;;;9.89;100.00
53522;BME280;39398;48.382;9.802;2023-03-20T08:31:51;94140.53;;;9.69;100.00
53522;BME280;39398;48.382;9.802;2023-03-20T08:36:53;94133.81;;;9.96;100.00
53522;BME280;39398;48.382;9.802;2023-03-20T08:41:56;94126.38;;;10.87;100.00
53522;BME280;39398;48.382;9.802;2023-03-20T08:47:00;94128.88;;;10.74;100.00
53522;BME280;39398;48.382;9.802;2023-03-20T08:52:02;94131.41;;;10.82;100.00
53522;BME280;39398;48.382;9.802;2023-03-20T08:57:05;94133.84;;;10.84;100.00
53522;BME280;39398;48.382;9.802;2023-03-20T09:02:08;94127.91;;;11.46;97.05
53522;BME280;39398;48.382;9.802;2023-03-20T09:07:10;94130.06;;;11.64;96.25
53522;BME280;39398;48.382;9.802;2023-03-20T09:12:13;94133.13;;;10.24;99.81
53522;BME280;39398;48.382;9.802;2023-03-20T09:17:14;94141.16;;;9.71;100.00
53522;BME280;39398;48.382;9.802;2023-03-20T09:22:16;94141.09;;;9.94;99.09
53522;BME280;39398;48.382;9.802;2023-03-20T09:27:19;94152.47;;;9.80;100.00
53522;BME280;39398;48.382;9.802;2023-03-20T09:32:20;94145.66;;;9.33;100.00
53522;BME280;39398;48.382;9.802;2023-03-20T09:37:22;94147.78;;;8.92;100.00
53522;BME280;39398;48.382;9.802;2023-03-20T09:42:33;94150.72;;;8.97;100.00
53522;BME280;39398;48.382;9.802;2023-03-20T09:47:45;94148.25;;;8.95;100.00
53522;BME280;39398;48.382;9.802;2023-03-20T09:52:55;94151.00;;;9.02;99.57
53522;BME280;39398;48.382;9.802;2023-03-20T09:58:03;94146.63;;;8.94;97.43
53522;BME280;39398;48.382;9.802;2023-03-20T10:03:14;94158.25;;;9.23;94.72
53522;BME280;39398;48.382;9.802;2023-03-20T10:08:20;94157.44;;;8.99;100.00
53522;BME280;39398;48.382;9.802;2023-03-20T10:13:40;94158.63;;;9.20;100.00
53522;BME280;39398;48.382;9.802;2023-03-20T10:18:48;94153.69;;;9.17;96.15
53522;BME280;39398;48.382;9.802;2023-03-20T10:23:57;94152.78;;;9.10;91.56
53522;BME280;39398;48.382;9.802;2023-03-20T10:29:02;94156.13;;;9.03;97.98
53522;BME280;39398;48.382;9.802;2023-03-20T10:34:18;94149.66;;;9.06;95.80
53522;BME280;39398;48.382;9.802;2023-03-20T10:39:31;94144.91;;;9.24;91.25
53522;BME280;39398;48.382;9.802;2023-03-20T10:44:39;94149.41;;;9.39;91.69
53522;BME280;39398;48.382;9.802;2023-03-20T10:49:45;94147.91;;;9.74;91.71
53522;BME280;39398;48.382;9.802;2023-03-20T10:54:54;94135.00;;;9.94;90.86
53522;BME280;39398;48.382;9.802;2023-03-20T10:59:58;94133.81;;;10.62;83.47
53522;BME280;39398;48.382;9.802;2023-03-20T11:05:00;94140.03;;;10.55;81.53
53522;BME280;39398;48.382;9.802;2023-03-20T11:10:07;94156.81;;;10.17;87.96
53522;BME280;39398;48.382;9.802;2023-03-20T11:15:23;94155.91;;;10.25;79.73
53522;BME280;39398;48.382;9.802;2023-03-20T11:20:32;94156.53;;;9.83;81.93
53522;BME280;39398;48.382;9.802;2023-03-20T11:25:37;94156.38;;;9.84;87.38
53522;BME280;39398;48.382;9.802;2023-03-20T11:30:41;94156.25;;;9.63;84.61
53522;BME280;39398;48.382;9.802;2023-03-20T11:35:58;94153.56;;;9.33;88.30
53522;BME280;39398;48.382;9.802;2023-03-20T11:41:03;94149.25;;;9.55;87.21
53522;BME280;39398;48.382;9.802;2023-03-20T11:46:09;94154.38;;;9.34;84.63
53522;BME280;39398;48.382;9.802;2023-03-20T11:51:13;94149.25;;;9.70;83.52
53522;BME280;39398;48.382;9.802;2023-03-20T11:56:21;94148.44;;;10.14;80.11
53522;BME280;39398;48.382;9.802;2023-03-20T12:01:24;94138.44;;;9.94;80.61
53522;BME280;39398;48.382;9.802;2023-03-20T12:06:37;94131.53;;;10.74;77.31
53522;BME280;39398;48.382;9.802;2023-03-20T12:11:45;94132.88;;;10.85;74.93
53522;BME280;39398;48.382;9.802;2023-03-20T12:16:51;94129.44;;;11.34;75.59
53522;BME280;39398;48.382;9.802;2023-03-20T12:22:00;94128.72;;;11.47;75.09
53522;BME280;39398;48.382;9.802;2023-03-20T12:32:25;94123.28;;;11.05;70.08
53522;BME280;39398;48.382;9.802;2023-03-20T12:37:29;94117.38;;;11.53;72.16
53522;BME280;39398;48.382;9.802;2023-03-20T12:42:38;94110.56;;;11.65;71.66
53522;BME280;39398;48.382;9.802;2023-03-20T12:47:54;94099.59;;;11.40;69.94
53522;BME280;39398;48.382;9.802;2023-03-20T12:53:09;94096.47;;;11.58;71.22
53522;BME280;39398;48.382;9.802;2023-03-20T12:58:24;94096.75;;;10.92;74.70
53522;BME280;39398;48.382;9.802;2023-03-20T13:03:55;94085.28;;;11.06;70.03
53522;BME280;39398;48.382;9.802;2023-03-20T13:09:30;94082.88;;;11.33;71.02
53522;BME280;39398;48.382;9.802;2023-03-20T13:14:42;94079.25;;;11.97;67.08
53522;BME280;39398;48.382;9.802;2023-03-20T13:19:53;94077.00;;;11.66;67.18
53522;BME280;39398;48.382;9.802;2023-03-20T13:25:01;94078.69;;;11.80;70.96
53522;BME280;39398;48.382;9.802;2023-03-20T13:30:14;94082.75;;;11.76;66.89
53522;BME280;39398;48.382;9.802;2023-03-20T13:35:27;94079.13;;;11.83;68.62
53522;BME280;39398;48.382;9.802;2023-03-20T13:40:33;94071.44;;;12.30;67.40
53522;BME280;39398;48.382;9.802;2023-03-20T13:45:39;94059.31;;;12.69;64.68
53522;BME280;39398;48.382;9.802;2023-03-20T13:50:45;94046.88;;;12.56;64.82
53522;BME280;39398;48.382;9.802;2023-03-20T13:55:54;94050.53;;;12.55;65.66
53522;BME280;39398;48.382;9.802;2023-03-20T14:01:05;94042.97;;;12.39;64.93
53522;BME280;39398;48.382;9.802;2023-03-20T14:06:24;94044.97;;;12.30;66.67
53522;BME280;39398;48.382;9.802;2023-03-20T14:11:40;94042.94;;;12.25;66.64
53522;BME280;39398;48.382;9.802;2023-03-20T14:16:42;94034.81;;;12.47;67.38
53522;BME280;39398;48.382;9.802;2023-03-20T14:21:45;94038.25;;;12.34;66.64
53522;BME280;39398;48.382;9.802;2023-03-20T14:26:49;94031.81;;;12.70;68.50
53522;BME280;39398;48.382;9.802;2023-03-20T14:31:51;94038.06;;;12.29;66.05
53522;BME280;39398;48.382;9.802;2023-03-20T14:36:57;94037.97;;;12.09;67.04
53522;BME280;39398;48.382;9.802;2023-03-20T14:42:04;94043.81;;;12.52;63.80
53522;BME280;39398;48.382;9.802;2023-03-20T14:47:21;94029.69;;;12.25;68.46
53522;BME280;39398;48.382;9.802;2023-03-20T14:52:41;94030.63;;;12.04;67.07
53522;BME280;39398;48.382;9.802;2023-03-20T14:57:47;94021.31;;;12.22;65.59
53522;BME280;39398;48.382;9.802;2023-03-20T15:03:04;94019.59;;;11.94;68.12
53522;BME280;39398;48.382;9.802;2023-03-20T15:08:09;94013.19;;;11.82;67.34
53522;BME280;39398;48.382;9.802;2023-03-20T15:13:13;94016.13;;;11.94;66.87
53522;BME280;39398;48.382;9.802;2023-03-20T15:18:16;94010.47;;;11.97;67.96
53522;BME280;39398;48.382;9.802;2023-03-20T15:23:17;93998.75;;;12.26;67.08
53522;BME280;39398;48.382;9.802;2023-03-20T15:28:22;94005.75;;;11.99;68.08
53522;BME280;39398;48.382;9.802;2023-03-20T15:33:26;94011.25;;;11.91;69.29
53522;BME280;39398;48.382;9.802;2023-03-20T15:38:32;94002.25;;;11.85;69.02
53522;BME280;39398;48.382;9.802;2023-03-20T15:43:35;93996.81;;;11.58;68.98
53522;BME280;39398;48.382;9.802;2023-03-20T15:48:37;94012.63;;;11.52;70.40
53522;BME280;39398;48.382;9.802;2023-03-20T15:53:39;94007.41;;;11.24;71.33
53522;BME280;39398;48.382;9.802;2023-03-20T15:58:43;94010.53;;;11.40;70.70
53522;BME280;39398;48.382;9.802;2023-03-20T16:03:45;94006.88;;;11.41;70.68
53522;BME280;39398;48.382;9.802;2023-03-20T16:08:55;94011.44;;;11.26;72.67
53522;BME280;39398;48.382;9.802;2023-03-20T16:13:58;94006.81;;;11.28;71.43
53522;BME280;39398;48.382;9.802;2023-03-20T16:19:00;94011.56;;;11.11;71.38
53522;BME280;39398;48.382;9.802;2023-03-20T16:24:06;94015.09;;;11.53;72.66
53522;BME280;39398;48.382;9.802;2023-03-20T16:29:12;94006.97;;;11.20;72.48
53522;BME280;39398;48.382;9.802;2023-03-20T16:34:17;94015.00;;;11.40;70.40
53522;BME280;39398;48.382;9.802;2023-03-20T16:39:22;94007.94;;;11.47;70.46
53522;BME280;39398;48.382;9.802;2023-03-20T16:44:31;94009.84;;;11.60;71.14
53522;BME280;39398;48.382;9.802;2023-03-20T16:50:10;94001.75;;;11.33;70.66
53522;BME280;39398;48.382;9.802;2023-03-20T16:55:15;94009.66;;;11.27;71.82
53522;BME280;39398;48.382;9.802;2023-03-20T17:00:21;94013.09;;;11.27;72.50
53522;BME280;39398;48.382;9.802;2023-03-20T17:05:33;94007.25;;;11.38;71.92
53522;BME280;39398;48.382;9.802;2023-03-20T17:10:37;94000.88;;;11.26;71.63
53522;BME280;39398;48.382;9.802;2023-03-20T17:15:41;94000.28;;;11.24;71.43
53522;BME280;39398;48.382;9.802;2023-03-20T17:20:42;94013.50;;;11.24;71.98
53522;BME280;39398;48.382;9.802;2023-03-20T17:25:44;94014.25;;;11.18;72.01
53522;BME280;39398;48.382;9.802;2023-03-20T17:30:48;94009.69;;;11.05;72.30
53522;BME280;39398;48.382;9.802;2023-03-20T17:35:50;94012.69;;;11.24;72.33
53522;BME280;39398;48.382;9.802;2023-03-20T17:40:52;94016.22;;;11.09;73.91
53522;BME280;39398;48.382;9.802;2023-03-20T17:45:55;94016.44;;;11.08;73.01
53522;BME280;39398;48.382;9.802;2023-03-20T17:50:56;94010.59;;;10.91;74.16
53522;BME280;39398;48.382;9.802;2023-03-20T17:55:58;94013.44;;;10.89;74.33
53522;BME280;39398;48.382;9.802;2023-03-20T18:01:00;94020.34;;;10.90;74.35
53522;BME280;39398;48.382;9.802;2023-03-20T18:06:03;94029.66;;;10.86;73.97
53522;BME280;39398;48.382;9.802;2023-03-20T18:11:07;94023.84;;;10.69;74.71
53522;BME280;39398;48.382;9.802;2023-03-20T18:16:16;94031.88;;;10.61;75.43
53522;BME280;39398;48.382;9.802;2023-03-20T18:21:18;94033.81;;;10.74;75.52
53522;BME280;39398;48.382;9.802;2023-03-20T18:26:21;94031.75;;;10.69;75.70
53522;BME280;39398;48.382;9.802;2023-03-20T18:31:24;94036.50;;;10.81;74.71
53522;BME280;39398;48.382;9.802;2023-03-20T18:36:26;94030.03;;;10.62;74.46
53522;BME280;39398;48.382;9.802;2023-03-20T18:41:28;94036.22;;;10.47;73.75
53522;BME280;39398;48.382;9.802;2023-03-20T18:46:31;94041.16;;;10.21;75.31
53522;BME280;39398;48.382;9.802;2023-03-20T18:51:32;94043.28;;;10.11;78.76
53522;BME280;39398;48.382;9.802;2023-03-20T18:56:34;94050.81;;;9.77;81.07
53522;BME280;39398;48.382;9.802;2023-03-20T19:01:37;94053.63;;;9.46;80.75
53522;BME280;39398;48.382;9.802;2023-03-20T19:06:38;94050.75;;;9.41;84.08
53522;BME280;39398;48.382;9.802;2023-03-20T19:11:40;94054.00;;;9.28;82.46
53522;BME280;39398;48.382;9.802;2023-03-20T19:16:43;94049.63;;;9.36;83.12
53522;BME280;39398;48.382;9.802;2023-03-20T19:21:45;94039.47;;;9.32;83.17
53522;BME280;39398;48.382;9.802;2023-03-20T19:26:46;94033.91;;;9.13;82.33
53522;BME280;39398;48.382;9.802;2023-03-20T19:31:49;94038.41;;;9.04;83.06
53522;BME280;39398;48.382;9.802;2023-03-20T19:36:51;94034.19;;;8.80;83.89
53522;BME280;39398;48.382;9.802;2023-03-20T19:41:53;94040.97;;;8.97;84.41
53522;BME280;39398;48.382;9.802;2023-03-20T19:46:55;94033.81;;;8.83;84.35
53522;BME280;39398;48.382;9.802;2023-03-20T19:51:58;94034.72;;;8.75;85.19
53522;BME280;39398;48.382;9.802;2023-03-20T19:56:59;94035.13;;;8.87;84.73
53522;BME280;39398;48.382;9.802;2023-03-20T20:02:02;94032.91;;;8.76;84.14
53522;BME280;39398;48.382;9.802;2023-03-20T20:07:04;94041.56;;;8.84;83.05
53522;BME280;39398;48.382;9.802;2023-03-20T20:12:25;94043.38;;;8.84;84.89
53522;BME280;39398;48.382;9.802;2023-03-20T20:17:28;94037.88;;;8.71;86.56
53522;BME280;39398;48.382;9.802;2023-03-20T20:22:30;94044.56;;;8.58;86.46
53522;BME280;39398;48.382;9.802;2023-03-20T20:27:32;94041.88;;;8.67;85.54
53522;BME280;39398;48.382;9.802;2023-03-20T20:32:36;94040.81;;;8.53;87.43
53522;BME280;39398;48.382;9.802;2023-03-20T20:37:40;94046.25;;;8.51;88.09
53522;BME280;39398;48.382;9.802;2023-03-20T20:43:01;94042.44;;;8.54;86.21
53522;BME280;39398;48.382;9.802;2023-03-20T20:48:11;94028.19;;;8.71;85.32
53522;BME280;39398;48.382;9.802;2023-03-20T20:53:13;94022.19;;;8.77;86.51
53522;BME280;39398;48.382;9.802;2023-03-20T20:58:14;94024.09;;;8.83;84.20
53522;BME280;39398;48.382;9.802;2023-03-20T21:03:17;94024.06;;;8.92;82.63
53522;BME280;39398;48.382;9.802;2023-03-20T21:08:18;94025.81;;;8.61;85.81
53522;BME280;39398;48.382;9.802;2023-03-20T21:13:20;94023.00;;;8.32;89.96
53522;BME280;39398;48.382;9.802;2023-03-20T21:18:23;94022.69;;;8.04;93.35
53522;BME280;39398;48.382;9.802;2023-03-20T21:23:24;94025.28;;;8.12;92.43
53522;BME280;39398;48.382;9.802;2023-03-20T21:28:26;94024.47;;;8.11;92.83
53522;BME280;39398;48.382;9.802;2023-03-20T21:33:29;94040.13;;;8.05;94.45
53522;BME280;39398;48.382;9.802;2023-03-20T21:38:30;94036.47;;;8.14;94.11
53522;BME280;39398;48.382;9.802;2023-03-20T21:43:52;94041.75;;;8.06;95.17
53522;BME280;39398;48.382;9.802;2023-03-20T21:48:55;94035.50;;;8.07;95.02
53522;BME280;39398;48.382;9.802;2023-03-20T21:54:17;94040.47;;;8.02;96.16
53522;BME280;39398;48.382;9.802;2023-03-20T21:59:38;94038.66;;;8.02;94.90
53522;BME280;39398;48.382;9.802;2023-03-20T22:05:01;94037.66;;;8.26;94.46
53522;BME280;39398;48.382;9.802;2023-03-20T22:10:22;94037.28;;;8.14;93.88
53522;BME280;39398;48.382;9.802;2023-03-20T22:15:44;94031.81;;;8.16;91.93
53522;BME280;39398;48.382;9.802;2023-03-20T22:21:07;94032.94;;;8.22;93.45
53522;BME280;39398;48.382;9.802;2023-03-20T22:26:28;94033.63;;;8.15;94.77
53522;BME280;39398;48.382;9.802;2023-03-20T22:31:50;94024.47;;;8.11;93.11
53522;BME280;39398;48.382;9.802;2023-03-20T22:37:13;94025.19;;;8.28;93.30
53522;BME280;39398;48.382;9.802;2023-03-20T22:42:34;94027.69;;;8.22;94.10
53522;BME280;39398;48.382;9.802;2023-03-20T22:47:56;94026.47;;;8.32;94.07
53522;BME280;39398;48.382;9.802;2023-03-20T22:52:59;94026.50;;;8.55;89.80
53522;BME280;39398;48.382;9.802;2023-03-20T22:58:00;94020.09;;;8.73;88.83
53522;BME280;39398;48.382;9.802;2023-03-20T23:03:09;94020.59;;;8.91;88.34
53522;BME280;39398;48.382;9.802;2023-03-20T23:08:31;94017.59;;;8.56;90.02
53522;BME280;39398;48.382;9.802;2023-03-20T23:13:40;94006.16;;;8.87;88.02
53522;BME280;39398;48.382;9.802;2023-03-20T23:18:41;94009.22;;;8.76;87.17
53522;BME280;39398;48.382;9.802;2023-03-20T23:23:45;94012.75;;;8.83;86.79
53522;BME280;39398;48.382;9.802;2023-03-20T23:28:47;94005.81;;;9.05;84.47
53522;BME280;39398;48.382;9.802;2023-03-20T23:33:51;94000.03;;;9.10;84.37
53522;BME280;39398;48.382;9.802;2023-03-20T23:38:54;94000.94;;;9.17;84.32
53522;BME280;39398;48.382;9.802;2023-03-20T23:43:55;93997.56;;;9.08;83.59
53522;BME280;39398;48.382;9.802;2023-03-20T23:48:57;93993.56;;;9.12;83.73
53522;BME280;39398;48.382;9.802;2023-03-20T23:53:59;93990.44;;;8.79;85.70
53522;BME280;39398;48.382;9.802;2023-03-20T23:59:01;93991.75;;;8.14;92.35
